createdAt,value
2019-03-01T00:03:15.367Z,100507.22
2019-03-01T00:08:28.214Z,100504.20
2019-03-01T00:14:00.029Z,100507.00
2019-03-01T00:19:34.460Z,100508.87
2019-03-01T00:24:55.291Z,100516.03
2019-03-01T00:30:25.805Z,100513.91
2019-03-01T00:35:46.892Z,100514.31
2019-03-01T00:41:05.700Z,100511.87
2019-03-01T00:46:11.501Z,100494.21
2019-03-01T00:51:17.068Z,100497.16
2019-03-01T00:56:24.085Z,100480.92
2019-03-01T01:01:29.884Z,100490.12
2019-03-01T01:06:38.648Z,100494.03
2019-03-01T01:11:46.395Z,100477.37
2019-03-01T01:16:54.215Z,100483.95
2019-03-01T01:22:00.320Z,100482.89
2019-03-01T01:27:08.715Z,100485.70
2019-03-01T01:32:16.315Z,100469.52
2019-03-01T01:37:22.773Z,100465.78
2019-03-01T01:42:28.650Z,100458.81
2019-03-01T01:47:34.782Z,100447.98
2019-03-01T01:52:40.615Z,100417.18
2019-03-01T01:57:46.281Z,100403.77
2019-03-01T02:02:53.257Z,100409.27
2019-03-01T02:08:00.767Z,100405.36
2019-03-01T02:13:08.613Z,100396.98
2019-03-01T02:18:16.109Z,100400.88
2019-03-01T02:23:22.690Z,100402.09
2019-03-01T02:28:28.288Z,100389.70
2019-03-01T02:33:33.904Z,100379.90
2019-03-01T02:38:41.408Z,100380.63
2019-03-01T02:43:51.447Z,100392.95
2019-03-01T02:49:00.654Z,100402.28
2019-03-01T02:54:06.545Z,100396.71
2019-03-01T02:59:12.198Z,100384.16
2019-03-01T03:04:18.521Z,100391.23
2019-03-01T03:09:24.195Z,100387.02
2019-03-01T03:14:35.605Z,100389.78
2019-03-01T03:19:41.274Z,100379.21
2019-03-01T03:24:48.175Z,100376.20
2019-03-01T03:29:53.938Z,100380.91
2019-03-01T03:35:00.770Z,100370.16
2019-03-01T03:40:14.708Z,100372.84
2019-03-01T03:45:22.415Z,100367.81
2019-03-01T03:50:28.480Z,100374.65
2019-03-01T03:55:39.170Z,100370.36
2019-03-01T04:00:44.851Z,100364.20
2019-03-01T04:05:52.821Z,100353.19
2019-03-01T04:10:58.706Z,100345.03
2019-03-01T04:16:06.272Z,100341.67
2019-03-01T04:21:12.013Z,100344.75
2019-03-01T04:26:17.610Z,100336.68
2019-03-01T04:31:23.350Z,100319.57
2019-03-01T04:36:29.774Z,100325.78
2019-03-01T04:41:39.099Z,100317.08
2019-03-01T04:46:45.905Z,100301.05
2019-03-01T04:51:57.649Z,100299.28
2019-03-01T04:57:03.238Z,100287.64
2019-03-01T05:02:09.651Z,100284.63
2019-03-01T05:07:15.204Z,100275.02
2019-03-01T05:12:21.188Z,100279.41
2019-03-01T05:17:28.012Z,100275.70
2019-03-01T05:22:34.807Z,100267.23
2019-03-01T05:27:44.716Z,100270.77
2019-03-01T05:32:50.816Z,100288.06
2019-03-01T05:37:56.651Z,100289.80
2019-03-01T05:43:02.472Z,100290.50
2019-03-01T05:48:08.316Z,100289.86
2019-03-01T05:53:13.979Z,100289.09
2019-03-01T05:58:31.402Z,100291.83
2019-03-01T06:03:41.447Z,100284.73
2019-03-01T06:08:52.873Z,100292.75
2019-03-01T06:14:19.559Z,100290.45
2019-03-01T06:19:28.462Z,100288.48
2019-03-01T06:25:12.770Z,100289.23
2019-03-01T06:30:38.173Z,100286.85
2019-03-01T06:36:01.311Z,100278.54
2019-03-01T06:41:26.140Z,100286.27
2019-03-01T06:46:51.821Z,100296.50
2019-03-01T06:51:59.039Z,100318.10
2019-03-01T06:57:05.045Z,100320.68
2019-03-01T07:02:13.125Z,100320.23
2019-03-01T07:07:18.937Z,100323.00
2019-03-01T07:12:24.578Z,100320.61
2019-03-01T07:17:30.240Z,100325.66
2019-03-01T07:22:36.689Z,100312.55
2019-03-01T07:27:42.655Z,100322.14
2019-03-01T07:32:48.236Z,100328.52
2019-03-01T07:37:54.388Z,100334.76
2019-03-01T07:43:01.041Z,100328.37
2019-03-01T07:48:06.969Z,100327.21
2019-03-01T07:53:12.700Z,100327.66
2019-03-01T07:58:21.725Z,100329.95
2019-03-01T08:03:26.254Z,100324.34
2019-03-01T08:08:34.749Z,100324.13
2019-03-01T08:13:39.605Z,100331.66
2019-03-01T08:18:46.237Z,100329.47
2019-03-01T08:23:52.065Z,100328.03
2019-03-01T08:28:59.535Z,100329.17
2019-03-01T08:34:05.694Z,100316.88
2019-03-01T08:39:12.075Z,100319.46
2019-03-01T08:44:19.442Z,100320.95
2019-03-01T08:49:26.928Z,100332.69
2019-03-01T08:54:33.203Z,100331.48
2019-03-01T08:59:39.786Z,100333.94
2019-03-01T09:04:50.830Z,100336.64
2019-03-01T09:09:57.064Z,100340.37
2019-03-01T09:15:07.383Z,100350.97
2019-03-01T09:20:16.159Z,100355.97
2019-03-01T09:25:22.002Z,100349.61
2019-03-01T09:30:29.214Z,100349.69
2019-03-01T09:35:39.682Z,100341.91
2019-03-01T09:40:45.100Z,100351.22
2019-03-01T09:45:51.729Z,100360.44
2019-03-01T09:50:59.584Z,100368.30
2019-03-01T09:56:05.934Z,100359.36
2019-03-01T10:01:17.606Z,100356.85
2019-03-01T10:06:24.646Z,100349.95
2019-03-01T10:11:30.837Z,100356.97
2019-03-01T10:16:36.646Z,100363.01
2019-03-01T10:21:44.064Z,100355.15
2019-03-01T10:26:51.366Z,100358.75
2019-03-01T10:31:56.975Z,100363.09
2019-03-01T10:37:02.536Z,100367.83
2019-03-01T10:42:08.777Z,100378.52
2019-03-01T10:47:14.976Z,100382.37
2019-03-01T10:52:21.085Z,100390.49
2019-03-01T10:57:26.676Z,100396.95
2019-03-01T11:02:32.813Z,100405.72
2019-03-01T11:07:38.635Z,100401.34
2019-03-01T11:12:46.371Z,100404.31
2019-03-01T11:17:52.048Z,100407.06
2019-03-01T11:22:58.445Z,100408.70
2019-03-01T11:28:05.710Z,100408.88
2019-03-01T11:33:12.929Z,100415.68
2019-03-01T11:38:19.588Z,100413.03
2019-03-01T11:43:27.330Z,100414.80
2019-03-01T11:48:34.937Z,100417.16
2019-03-01T11:53:41.904Z,100416.13
2019-03-01T11:58:49.112Z,100429.55
2019-03-01T12:03:54.754Z,100430.59
2019-03-01T12:09:01.284Z,100441.30
2019-03-01T12:14:09.101Z,100435.48
2019-03-01T12:19:15.639Z,100438.56
2019-03-01T12:24:22.409Z,100434.85
2019-03-01T12:29:27.991Z,100430.35
2019-03-01T12:34:34.280Z,100442.13
2019-03-01T12:39:40.533Z,100443.84
2019-03-01T12:44:47.444Z,100445.62
2019-03-01T12:49:53.569Z,100443.70
2019-03-01T12:54:59.124Z,100447.61
2019-03-01T13:00:08.257Z,100462.40
2019-03-01T13:05:14.883Z,100475.89
2019-03-01T13:10:23.847Z,100489.43
2019-03-01T13:15:30.302Z,100490.76
2019-03-01T13:20:38.170Z,100502.77
2019-03-01T13:25:45.131Z,100505.23
2019-03-01T13:30:50.854Z,100512.87
2019-03-01T13:35:56.591Z,100516.11
2019-03-01T13:41:03.024Z,100527.69
2019-03-01T13:46:09.463Z,100521.73
2019-03-01T13:51:17.310Z,100521.11
2019-03-01T13:56:24.029Z,100525.45
2019-03-01T14:01:29.915Z,100534.30
2019-03-01T14:06:36.598Z,100538.16
2019-03-01T14:11:46.031Z,100537.23
2019-03-01T14:16:52.424Z,100536.14
2019-03-01T14:21:57.990Z,100533.77
2019-03-01T14:27:03.905Z,100531.95
2019-03-01T14:32:10.345Z,100541.24
2019-03-01T14:37:18.650Z,100549.38
2019-03-01T14:42:24.761Z,100543.73
2019-03-01T14:47:32.734Z,100548.66
2019-03-01T14:52:38.866Z,100559.66
2019-03-01T14:57:47.223Z,100559.34
2019-03-01T15:03:08.633Z,100557.05
2019-03-01T15:08:14.707Z,100560.36
2019-03-01T15:13:21.785Z,100556.92
2019-03-01T15:18:28.967Z,100554.81
2019-03-01T15:23:34.832Z,100563.48
2019-03-01T15:28:55.336Z,100568.66
2019-03-01T15:33:58.836Z,100572.70
2019-03-01T15:39:08.381Z,100566.34
2019-03-01T15:44:14.723Z,100591.64
2019-03-01T15:49:23.702Z,100597.05
2019-03-01T15:54:29.009Z,100604.41
2019-03-01T15:59:34.838Z,100619.98
2019-03-01T16:04:41.989Z,100619.25
2019-03-01T16:09:48.478Z,100618.93
2019-03-01T16:14:57.202Z,100625.77
2019-03-01T16:20:01.838Z,100630.45
2019-03-01T16:25:11.100Z,100631.54
2019-03-01T16:30:19.589Z,100636.41
2019-03-01T16:35:27.239Z,100644.86
2019-03-01T16:40:33.412Z,100657.37
2019-03-01T16:45:40.224Z,100665.45
2019-03-01T16:50:46.008Z,100669.00
2019-03-01T16:55:54.019Z,100676.49
2019-03-01T17:01:00.207Z,100676.45
2019-03-01T17:06:06.557Z,100696.98
2019-03-01T17:11:12.773Z,100703.73
2019-03-01T17:16:20.465Z,100707.36
2019-03-01T17:21:28.042Z,100707.80
2019-03-01T17:26:33.642Z,100721.83
2019-03-01T17:31:40.158Z,100723.17
2019-03-01T17:36:45.958Z,100729.45
2019-03-01T17:41:53.573Z,100724.52
2019-03-01T17:46:59.768Z,100738.34
2019-03-01T17:52:06.068Z,100737.28
2019-03-01T17:57:13.726Z,100749.27
2019-03-01T18:02:19.488Z,100745.83
2019-03-01T18:07:27.266Z,100766.42
2019-03-01T18:12:33.468Z,100763.41
2019-03-01T18:17:39.531Z,100780.38
2019-03-01T18:22:45.842Z,100787.80
2019-03-01T18:27:52.926Z,100791.38
2019-03-01T18:32:59.163Z,100800.46
2019-03-01T18:38:05.262Z,100804.64
2019-03-01T18:43:13.054Z,100820.04
2019-03-01T18:48:18.950Z,100826.13
2019-03-01T18:53:28.572Z,100836.19
2019-03-01T18:58:35.083Z,100839.70
2019-03-01T19:03:41.492Z,100848.72
2019-03-01T19:08:48.069Z,100860.00
2019-03-01T19:13:55.258Z,100866.44
2019-03-01T19:19:03.441Z,100866.16
2019-03-01T19:24:09.145Z,100868.52
2019-03-01T19:29:15.371Z,100874.81
2019-03-01T19:34:22.889Z,100877.68
2019-03-01T19:39:37.223Z,100884.25
2019-03-01T19:44:44.086Z,100881.73
2019-03-01T19:49:50.441Z,100883.55
2019-03-01T19:54:56.752Z,100881.91
2019-03-01T20:00:09.634Z,100884.30
2019-03-01T20:05:20.984Z,100889.46
2019-03-01T20:10:27.845Z,100886.61
2019-03-01T20:15:36.120Z,100893.00
2019-03-01T20:20:42.468Z,100912.34
2019-03-01T20:25:52.732Z,100904.47
2019-03-01T20:31:01.611Z,100916.64
2019-03-01T20:36:08.788Z,100913.92
2019-03-01T20:41:15.458Z,100925.64
2019-03-01T20:46:24.409Z,100919.76
2019-03-01T20:51:29.896Z,100925.40
2019-03-01T20:56:41.167Z,100930.36
2019-03-01T21:01:48.483Z,100935.20
2019-03-01T21:06:55.462Z,100928.41
2019-03-01T21:12:01.935Z,100934.34
2019-03-01T21:17:10.967Z,100933.09
2019-03-01T21:22:17.377Z,100931.20
2019-03-01T21:27:25.993Z,100936.47
2019-03-01T21:32:32.034Z,100937.47
2019-03-01T21:37:39.405Z,100935.95
2019-03-01T21:42:47.707Z,100941.86
2019-03-01T21:47:59.965Z,100946.67
2019-03-01T21:53:08.871Z,100950.21
2019-03-01T21:58:19.260Z,100949.53
2019-03-01T22:03:28.277Z,100948.77
2019-03-01T22:08:36.581Z,100957.73
2019-03-01T22:13:43.085Z,100956.00
2019-03-01T22:18:49.331Z,100958.91
2019-03-01T22:23:56.513Z,100962.19
2019-03-01T22:29:05.407Z,100952.91
2019-03-01T22:34:11.016Z,100953.50
2019-03-01T22:39:19.110Z,100951.58
2019-03-01T22:44:24.748Z,100950.83
2019-03-01T22:49:34.100Z,100952.19
2019-03-01T22:54:39.925Z,100960.59
2019-03-01T22:59:48.311Z,100963.22
2019-03-01T23:04:54.790Z,100965.56
2019-03-01T23:10:00.351Z,100965.98
2019-03-01T23:15:08.614Z,100967.98
2019-03-01T23:20:14.323Z,100977.52
2019-03-01T23:25:20.151Z,100973.13
2019-03-01T23:30:28.845Z,100962.70
2019-03-01T23:35:33.229Z,100973.08
2019-03-01T23:40:40.435Z,100973.13
2019-03-01T23:45:46.108Z,100969.55
2019-03-01T23:50:52.308Z,100981.22
2019-03-01T23:55:58.602Z,100978.91
